Time;durP1;ratioP1;P1;durP2;ratioP2;P2;SDS_P1;SDS_P2;PMS_P1;PMS_P2;Temp;Humidity;BMP_temperature;BMP_pressure;BME280_temperature;BME280_humidity;BME280_pressure;Samples;Min_cycle;Max_cycle;Signal;HPM_P1;HPM_P2
2023/07/12 08:57:21;;;;;;;12.32;3.60;;;;;;;18.58;100.00;101004.75;5025871;28;20478;-65
2023/07/12 09:00:00;;;;;;;11.90;3.80;;;;;;;18.59;100.00;101003.69;5024706;28;20062;-65
2023/07/12 09:02:26;;;;;;;12.60;3.45;;;;;;;18.56;100.00;100996.81;5023831;28;20070;-65
2023/07/12 09:04:56;;;;;;;10.95;3.50;;;;;;;18.57;100.00;101001.22;5019338;28;20038;-65
2023/07/12 09:07:33;;;;;;;9.02;3.47;;;;;;;18.63;100.00;101009.41;5006026;28;20111;-65
2023/07/12 09:09:59;;;;;;;9.18;3.42;;;;;;;18.72;100.00;101005.03;5012717;28;20465;-65
2023/07/12 09:12:29;;;;;;;15.80;3.53;;;;;;;18.80;100.00;101004.47;5026153;28;20112;-65
2023/07/12 09:15:09;;;;;;;9.30;3.40;;;;;;;18.99;100.00;101002.00;5025540;28;20033;-65
2023/07/12 09:17:42;;;;;;;16.30;3.38;;;;;;;19.01;100.00;101001.72;5026442;28;20037;-66
2023/07/12 09:20:25;;;;;;;9.85;3.10;;;;;;;19.02;100.00;100995.13;5022718;28;20033;-65
2023/07/12 09:22:51;;;;;;;8.25;3.05;;;;;;;19.08;100.00;100999.50;5025938;28;20117;-65
2023/07/12 09:25:23;;;;;;;8.73;3.38;;;;;;;19.23;100.00;100996.69;5026159;28;20022;-65
2023/07/12 09:27:48;;;;;;;7.45;3.08;;;;;;;19.35;100.00;101001.88;5023994;28;20049;-65
2023/07/12 09:30:22;;;;;;;9.18;3.05;;;;;;;19.39;100.00;100999.41;5014867;28;20033;-66
2023/07/12 09:32:49;;;;;;;11.38;3.35;;;;;;;19.34;97.36;100999.41;5025822;28;20025;-66
2023/07/12 09:35:45;;;;;;;8.32;2.78;;;;;;;19.34;100.00;100991.19;5025803;28;20030;-65
2023/07/12 09:38:13;;;;;;;13.05;3.67;;;;;;;19.33;99.23;100987.63;5026586;28;20128;-65
2023/07/12 09:40:41;;;;;;;9.20;2.92;;;;;;;19.31;99.45;100981.63;5023447;28;20065;-65
2023/07/12 09:43:18;;;;;;;10.88;2.95;;;;;;;19.42;100.00;100994.19;5023328;28;20030;-65
2023/07/12 09:46:12;;;;;;;8.23;3.22;;;;;;;19.48;100.00;100986.75;5024488;28;20051;-65
2023/07/12 09:48:53;;;;;;;8.20;3.08;;;;;;;19.48;99.15;100986.75;5008580;28;20041;-65
2023/07/12 09:51:38;;;;;;;11.05;3.15;;;;;;;19.69;96.74;100990.22;5006025;28;20026;-65
2023/07/12 09:54:27;;;;;;;10.88;2.70;;;;;;;19.83;84.97;100991.25;5005882;28;20022;-65
2023/07/12 09:56:56;;;;;;;8.93;3.05;;;;;;;19.83;85.26;100976.69;5026531;28;20060;-65
2023/07/12 09:59:39;;;;;;;7.70;2.65;;;;;;;20.00;87.34;100971.66;5024541;28;20041;-65
2023/07/12 10:02:18;;;;;;;10.43;2.65;;;;;;;20.05;88.08;100976.28;5015617;28;20102;-65
2023/07/12 10:04:50;;;;;;;8.65;2.90;;;;;;;20.00;85.25;100973.56;5005624;28;20121;-65
2023/07/12 10:07:35;;;;;;;10.80;2.97;;;;;;;20.19;87.95;100974.50;5003556;28;20032;-65
2023/07/12 10:10:01;;;;;;;6.13;2.42;;;;;;;20.25;76.59;100961.56;5023231;28;20073;-65
2023/07/12 10:12:35;;;;;;;12.80;2.42;;;;;;;20.30;74.56;100956.00;4992459;28;20465;-65
2023/07/12 10:15:02;;;;;;;9.70;2.50;;;;;;;20.36;76.31;100968.59;4992674;28;20038;-64
2023/07/12 10:17:34;;;;;;;7.93;2.40;;;;;;;20.47;77.13;100966.59;4992662;28;20038;-64
2023/07/12 10:20:01;;;;;;;13.00;3.05;;;;;;;20.52;73.76;100965.72;4998072;28;20022;-64
2023/07/12 10:22:38;;;;;;;9.50;2.70;;;;;;;20.44;73.20;100972.69;5012192;28;20087;-64
2023/07/12 10:25:14;;;;;;;9.52;2.30;;;;;;;20.43;68.18;100968.28;5001851;28;20064;-64
2023/07/12 10:27:46;;;;;;;11.90;2.67;;;;;;;20.54;70.79;100980.00;5011147;28;20104;-63
2023/07/12 10:30:24;;;;;;;8.98;2.33;;;;;;;20.61;72.38;100977.75;5009398;28;20113;-64
2023/07/12 10:33:26;;;;;;;8.35;2.75;;;;;;;20.70;74.34;100988.97;5011786;28;20038;-64
2023/07/12 10:36:00;;;;;;;7.80;2.40;;;;;;;20.75;75.56;100985.34;5013683;28;20577;-64
2023/07/12 10:38:25;;;;;;;9.55;2.33;;;;;;;20.79;74.54;100987.22;5011929;28;20026;-64
2023/07/12 10:41:13;;;;;;;10.23;2.75;;;;;;;20.77;73.88;100983.13;5000526;28;20359;-64
2023/07/12 10:44:04;;;;;;;5.95;2.20;;;;;;;20.94;75.98;100989.00;5006539;28;20038;-64
2023/07/12 10:46:43;;;;;;;8.37;2.40;;;;;;;21.03;71.87;100973.47;5011892;28;20066;-64
2023/07/12 10:49:16;;;;;;;8.20;2.33;;;;;;;21.14;69.75;100981.63;5011415;28;20265;-65
2023/07/12 10:51:45;;;;;;;9.27;2.22;;;;;;;21.32;68.81;100983.59;5009599;28;20033;-65
2023/07/12 10:54:29;;;;;;;13.40;2.53;;;;;;;21.28;68.70;100987.22;5011413;28;20373;-70
2023/07/12 10:57:01;;;;;;;11.27;2.53;;;;;;;21.17;68.49;100986.53;5009909;28;20050;-67
2023/07/12 10:59:32;;;;;;;7.25;2.30;;;;;;;21.20;68.73;100991.47;5009736;28;20060;-66
2023/07/12 11:02:03;;;;;;;;;;;;;;;21.31;71.96;100986.63;4989948;28;20026;-64
2023/07/12 11:04:29;;;;;;;10.68;2.75;;;;;;;21.39;65.64;100975.81;4998318;28;19921;-65
2023/07/12 11:07:03;;;;;;;11.93;2.60;;;;;;;21.42;64.16;100996.41;5002925;28;20037;-66
2023/07/12 11:09:49;;;;;;;7.93;2.30;;;;;;;21.39;63.27;100992.31;4992642;28;20344;-65
2023/07/12 11:12:26;;;;;;;8.80;2.60;;;;;;;21.29;63.93;100989.69;5001700;28;20026;-65
2023/07/12 11:15:05;;;;;;;8.68;2.10;;;;;;;21.20;64.93;100989.50;5007111;28;20076;-64
2023/07/12 11:17:49;;;;;;;9.63;2.55;;;;;;;21.34;63.92;100986.88;5001167;28;20026;-64
2023/07/12 11:20:25;;;;;;;6.97;2.45;;;;;;;21.41;63.11;100986.53;5034925;28;20040;-64
2023/07/12 11:23:06;;;;;;;7.88;2.08;;;;;;;21.29;64.08;100984.19;5008955;28;20511;-65
2023/07/12 11:25:40;;;;;;;10.32;2.85;;;;;;;21.47;64.39;100979.00;4990196;28;20095;-66
2023/07/12 11:28:20;;;;;;;8.85;2.50;;;;;;;21.77;62.58;100984.13;4990701;28;20030;-66
2023/07/12 11:30:46;;;;;;;6.35;2.35;;;;;;;21.92;58.38;100985.00;4990588;28;20428;-66
2023/07/12 11:33:27;;;;;;;7.00;2.22;;;;;;;21.89;59.38;100980.94;4992223;28;20413;-66
2023/07/12 11:36:08;;;;;;;8.57;2.35;;;;;;;21.71;59.42;100988.06;4990935;28;20069;-66
2023/07/12 11:38:35;;;;;;;;;;;;;;;21.76;60.43;100990.75;5010881;28;20033;-66
2023/07/12 11:41:13;;;;;;;7.28;1.98;;;;;;;21.64;59.15;100992.31;5000264;28;19914;-66
2023/07/12 11:43:40;;;;;;;7.55;2.10;;;;;;;21.97;59.96;100979.44;5005227;28;20479;-66
2023/07/12 11:46:19;;;;;;;8.00;2.45;;;;;;;22.12;56.59;100990.22;5007173;28;20075;-66
2023/07/12 11:49:04;;;;;;;8.07;2.30;;;;;;;22.28;56.37;100993.56;4997862;28;20456;-66
2023/07/12 11:51:34;;;;;;;9.65;2.25;;;;;;;22.27;54.64;100989.16;4999864;28;20078;-66
2023/07/12 11:54:00;;;;;;;4.93;1.92;;;;;;;22.48;54.06;100977.81;5010274;28;20598;-68
2023/07/12 11:56:25;;;;;;;6.32;2.10;;;;;;;22.65;55.03;100993.78;4996949;28;20050;-65
2023/07/12 11:58:51;;;;;;;5.53;1.83;;;;;;;22.51;53.97;101001.19;5000861;28;20109;-66
2023/07/12 12:01:21;;;;;;;7.03;2.08;;;;;;;22.27;55.73;101002.94;5005454;28;20032;-69
2023/07/12 12:03:49;;;;;;;6.90;2.22;;;;;;;22.11;56.59;100999.59;5011181;28;20050;-67
2023/07/12 12:06:17;;;;;;;9.63;2.22;;;;;;;22.13;56.60;101002.03;5010648;28;20040;-69
2023/07/12 12:08:48;;;;;;;6.53;2.25;;;;;;;22.27;56.11;101000.19;5020844;28;20029;-68
2023/07/12 12:11:14;;;;;;;7.78;2.25;;;;;;;22.15;54.93;101007.25;5018188;28;20116;-71
2023/07/12 12:13:45;;;;;;;7.13;2.15;;;;;;;22.09;54.69;100996.31;5009400;28;20109;-66
2023/07/12 12:16:20;;;;;;;6.70;2.17;;;;;;;21.95;52.59;101003.69;5008995;28;20041;-69
2023/07/12 12:18:56;;;;;;;8.18;2.08;;;;;;;21.92;55.74;101015.31;5010422;28;20036;-68
2023/07/12 12:21:24;;;;;;;8.90;2.70;;;;;;;21.65;60.71;101015.97;5009189;28;20056;-66
2023/07/12 12:24:04;;;;;;;14.93;3.40;;;;;;;21.53;63.22;101017.22;5010232;28;20121;-68
2023/07/12 12:26:39;;;;;;;14.07;3.67;;;;;;;21.42;64.15;101023.94;4993916;28;20030;-65
2023/07/12 12:29:13;;;;;;;11.30;2.97;;;;;;;21.33;64.43;101018.28;4990573;28;20034;-68
2023/07/12 12:31:53;;;;;;;8.77;3.10;;;;;;;21.34;65.76;101030.91;4999302;28;20038;-66
2023/07/12 12:34:20;;;;;;;11.57;3.38;;;;;;;21.34;65.26;101022.66;5010301;28;20030;-65
2023/07/12 12:37:00;;;;;;;9.60;2.90;;;;;;;21.52;64.53;101028.53;5010015;28;20030;-66
2023/07/12 12:39:27;;;;;;;12.15;3.17;;;;;;;21.83;64.10;101028.13;5009867;28;20388;-67
2023/07/12 12:41:55;;;;;;;8.35;2.70;;;;;;;21.76;61.41;101025.75;4997786;28;20034;-64
2023/07/12 12:44:21;;;;;;;9.27;2.58;;;;;;;21.74;62.21;101023.28;4988786;28;20042;-64
2023/07/12 12:46:50;;;;;;;12.05;3.05;;;;;;;21.59;61.53;101018.78;4990541;28;20423;-66
2023/07/12 12:49:20;;;;;;;11.98;3.55;;;;;;;21.51;61.03;101024.13;4990181;28;20041;-67
2023/07/12 12:51:48;;;;;;;9.98;2.70;;;;;;;21.43;60.11;101023.63;4989733;28;20037;-66
2023/07/12 12:54:13;;;;;;;8.55;2.63;;;;;;;21.35;61.51;101016.03;4990504;28;20030;-66
2023/07/12 12:56:38;;;;;;;8.27;2.47;;;;;;;21.36;60.94;101017.69;4990366;28;20389;-65
2023/07/12 12:59:08;;;;;;;8.40;2.33;;;;;;;21.32;63.28;101024.06;4990337;28;20065;-64
2023/07/12 13:01:34;;;;;;;8.52;2.45;;;;;;;21.32;62.53;101027.63;4995410;28;20457;-67
2023/07/12 13:04:00;;;;;;;6.45;2.17;;;;;;;21.23;58.94;101019.19;4990051;28;20038;-71
2023/07/12 13:06:27;;;;;;;8.90;2.30;;;;;;;21.20;60.61;101024.47;5001542;28;20033;-65
2023/07/12 13:08:52;;;;;;;12.57;2.47;;;;;;;21.05;59.97;101022.72;5001309;28;20038;-67
2023/07/12 13:11:18;;;;;;;8.15;2.22;;;;;;;20.96;61.13;101025.28;4996180;28;20078;-66
2023/07/12 13:13:43;;;;;;;8.50;2.65;;;;;;;20.93;62.75;101030.56;5060522;28;20027;-69
2023/07/12 13:16:16;;;;;;;7.43;2.50;;;;;;;20.94;63.94;101032.16;4989890;28;20034;-71
2023/07/12 13:18:42;;;;;;;8.63;2.72;;;;;;;21.25;67.95;101027.16;4990076;28;20027;-69
2023/07/12 13:21:24;;;;;;;7.57;2.50;;;;;;;21.68;63.68;101029.97;4992204;28;20038;-68
2023/07/12 13:23:50;;;;;;;7.70;2.30;;;;;;;21.90;57.93;101025.81;4990029;28;20057;-68
2023/07/12 13:26:22;;;;;;;10.85;2.35;;;;;;;22.06;58.59;101034.69;5039470;28;20423;-69
2023/07/12 13:28:48;;;;;;;10.68;2.80;;;;;;;22.16;59.02;101034.50;5089966;28;20053;-66
2023/07/12 13:31:18;;;;;;;9.80;2.78;;;;;;;22.20;59.91;101034.75;5038347;28;20178;-67
2023/07/12 13:33:44;;;;;;;6.00;2.30;;;;;;;22.05;57.65;101028.34;5009218;28;20026;-67
2023/07/12 13:36:25;;;;;;;7.97;2.00;;;;;;;21.98;59.22;101032.59;5008851;28;20026;-69
2023/07/12 13:38:51;;;;;;;7.68;2.00;;;;;;;21.84;60.11;101036.09;5009656;28;20036;-67
2023/07/12 13:41:16;;;;;;;7.25;2.30;;;;;;;21.69;58.03;101039.03;5007954;28;20033;-69
2023/07/12 13:43:41;;;;;;;7.28;2.13;;;;;;;21.62;56.52;101035.84;5005029;28;20033;-68
2023/07/12 13:46:14;;;;;;;9.68;2.47;;;;;;;21.51;56.50;101046.16;5006158;28;20117;-67
2023/07/12 13:48:40;;;;;;;7.18;2.05;;;;;;;21.42;56.12;101044.03;4992949;28;20427;-67
2023/07/12 13:51:17;;;;;;;5.82;2.25;;;;;;;21.35;56.85;101049.06;4992431;28;20035;-69
2023/07/12 13:53:43;;;;;;;7.40;2.33;;;;;;;21.26;56.27;101056.34;4993061;28;20092;-70
2023/07/12 13:56:08;;;;;;;7.82;2.60;;;;;;;21.20;57.24;101047.31;4991270;28;20085;-69
2023/07/12 13:58:33;;;;;;;9.23;2.17;;;;;;;21.16;59.14;101050.94;4992892;28;20054;-70
2023/07/12 14:00:59;;;;;;;6.45;2.15;;;;;;;21.13;58.88;101057.03;4992504;28;20033;-71
2023/07/12 14:03:24;;;;;;;7.85;2.47;;;;;;;21.16;60.00;101061.94;5012199;28;20113;-68
2023/07/12 14:05:49;;;;;;;7.78;2.42;;;;;;;21.22;59.79;101055.25;5011139;28;20052;-69
2023/07/12 14:08:15;;;;;;;8.43;2.53;;;;;;;21.22;58.43;101069.03;5012155;28;20091;-67
2023/07/12 14:10:41;;;;;;;5.95;2.30;;;;;;;21.22;58.71;101071.78;5011479;28;20056;-67
2023/07/12 14:13:22;;;;;;;4.55;1.92;;;;;;;21.21;58.94;101070.13;5012143;28;20102;-68
2023/07/12 14:15:48;;;;;;;7.67;2.23;;;;;;;21.17;59.62;101069.09;5004631;28;20027;-70
2023/07/12 14:18:13;;;;;;;7.90;2.38;;;;;;;21.11;59.95;101070.25;4992536;28;20031;-68
2023/07/12 14:20:38;;;;;;;7.18;2.40;;;;;;;21.02;59.98;101068.13;4992684;28;20419;-67
2023/07/12 14:23:12;;;;;;;4.00;2.00;;;;;;;21.03;60.01;101075.28;4992378;28;20462;-68
2023/07/12 14:25:37;;;;;;;5.15;1.95;;;;;;;20.92;61.15;101065.47;4992604;28;20038;-68
2023/07/12 14:28:04;;;;;;;7.10;2.10;;;;;;;20.89;60.84;101074.31;4992358;28;20027;-67
2023/07/12 14:30:30;;;;;;;5.15;1.85;;;;;;;20.84;60.92;101061.41;4996817;28;20055;-67
2023/07/12 14:32:55;;;;;;;8.73;2.30;;;;;;;20.83;62.67;101069.97;4996326;28;20030;-70
2023/07/12 14:35:26;;;;;;;7.50;2.15;;;;;;;20.86;61.47;101069.38;4990742;28;20117;-69
2023/07/12 14:37:53;;;;;;;11.57;2.20;;;;;;;20.88;62.18;101072.69;4992432;28;20117;-69
2023/07/12 14:40:20;;;;;;;7.45;2.22;;;;;;;21.02;63.06;101081.88;4992151;28;20031;-68
2023/07/12 14:42:46;;;;;;;6.65;2.22;;;;;;;20.98;59.72;101060.75;4990315;28;20065;-70
2023/07/12 14:45:16;;;;;;;5.72;2.20;;;;;;;21.05;61.84;101073.03;4991644;28;20053;-68
2023/07/12 14:47:42;;;;;;;8.43;2.33;;;;;;;21.12;61.02;101072.72;5003068;28;20541;-67
2023/07/12 14:50:09;;;;;;;4.90;1.70;;;;;;;21.13;60.14;101077.09;4992045;28;20026;-67
2023/07/12 14:52:35;;;;;;;8.38;2.10;;;;;;;21.08;59.42;101076.34;5006414;28;20038;-66
2023/07/12 14:55:03;;;;;;;5.05;2.00;;;;;;;20.94;59.63;101070.69;5011096;28;20449;-69
2023/07/12 14:57:29;;;;;;;7.07;2.00;;;;;;;20.86;60.26;101074.88;5011951;28;20030;-70
2023/07/12 14:59:55;;;;;;;6.30;2.10;;;;;;;20.95;61.34;101077.84;4997659;28;20443;-68
2023/07/12 15:02:23;;;;;;;7.43;2.05;;;;;;;20.96;60.75;101079.47;5004829;28;20030;-66
2023/07/12 15:04:50;;;;;;;5.78;1.85;;;;;;;21.00;61.94;101086.03;5011547;28;20034;-68
2023/07/12 15:07:18;;;;;;;5.50;2.10;;;;;;;21.08;60.92;101077.16;5011266;28;20090;-67
2023/07/12 15:09:45;;;;;;;5.75;2.00;;;;;;;21.08;61.30;101071.66;5006065;28;20029;-69
2023/07/12 15:12:34;;;;;;;5.88;1.80;;;;;;;21.11;61.05;101070.25;5007033;28;20087;-68
2023/07/12 15:15:21;;;;;;;6.10;2.20;;;;;;;21.09;60.05;101075.22;5011158;28;20033;-68
2023/07/12 15:18:17;;;;;;;8.63;2.20;;;;;;;21.14;60.36;101075.19;5009879;28;20038;-69
2023/07/12 15:20:44;;;;;;;6.05;2.17;;;;;;;21.05;58.86;101084.06;5011391;28;20133;-68
2023/07/12 15:23:15;;;;;;;8.48;2.10;;;;;;;21.09;59.45;101080.72;5010344;28;20048;-67
2023/07/12 15:25:41;;;;;;;9.90;2.25;;;;;;;21.11;58.54;101075.75;5009790;28;20034;-73
2023/07/12 15:28:09;;;;;;;6.40;1.70;;;;;;;21.05;59.92;101072.22;5073006;28;20035;-66
2023/07/12 15:30:35;;;;;;;4.53;1.70;;;;;;;21.05;60.06;101075.78;5113114;28;20031;-66
2023/07/12 15:33:00;;;;;;;7.90;1.90;;;;;;;21.01;60.21;101077.47;5020271;27;20033;-68
2023/07/12 15:35:35;;;;;;;6.22;2.05;;;;;;;20.95;60.71;101084.16;5010924;28;20037;-66
2023/07/12 15:38:03;;;;;;;7.30;2.03;;;;;;;20.88;61.57;101087.25;5010846;28;20037;-67
2023/07/12 15:41:16;;;;;;;5.68;2.00;;;;;;;20.89;62.55;101088.06;4993323;28;20121;-68
2023/07/12 15:43:45;;;;;;;6.63;2.20;;;;;;;20.84;63.72;101086.16;4994581;28;20042;-66
2023/07/12 15:46:25;;;;;;;8.15;2.22;;;;;;;20.82;64.49;101084.81;5015224;28;20063;-66
2023/07/12 15:48:52;;;;;;;8.93;2.37;;;;;;;20.81;63.38;101088.69;5008254;28;20030;-70
2023/07/12 15:51:21;;;;;;;6.80;2.10;;;;;;;20.75;60.53;101087.91;4991160;28;20034;-67
2023/07/12 15:53:49;;;;;;;8.95;2.15;;;;;;;20.71;60.81;101092.31;5000463;28;20026;-66
2023/07/12 15:56:18;;;;;;;4.80;1.70;;;;;;;20.64;59.65;101083.56;5018733;28;20054;-64
2023/07/12 15:58:45;;;;;;;10.43;2.40;;;;;;;20.58;60.84;101085.53;4990946;28;20401;-65
2023/07/12 16:01:17;;;;;;;4.75;1.70;;;;;;;20.86;59.78;101078.47;4987992;28;20030;-66
2023/07/12 16:03:43;;;;;;;7.18;1.88;;;;;;;21.54;56.87;101081.38;4991702;28;20038;-66
2023/07/12 16:06:10;;;;;;;7.18;2.10;;;;;;;22.00;55.27;101074.47;4989876;28;20039;-66
